KLMT/LMT METAR and TAF weather

Enter ICAO airport designator
Station Type Date Time Source
KLMT METAR 2021/01/16 02:53 UTC NOAA

KLMT 160253Z 17005KT 10SM CLR 02/01 A3039 RMK AO2 SLP310 T00170006 53004


Station Type Date Time Source
KLMT Decoded METAR 2021/01/16 02:53 UTC NOAA

KLAMATH FALLS INTERNATIONAL AIRPORT, OR, United States (KLMT) 42-09N 121-43W 1246M
Jan 15, 2021 - 09:53 PM EST / 2021.01.16 0253 UTC
Wind: from the S (170 degrees) at 6 MPH (5 KT):0
Visibility: 10 mile(s):0
Sky conditions: clear
Temperature: 35.1 F (1.7 C)
Dew Point: 33.1 F (0.6 C)
Relative Humidity: 92%
Pressure (altimeter): 30.39 in. Hg (1029 hPa)
Pressure tendency: 0.01 inches (0.4 hPa) higher than three hours ago
ob: KLMT 160253Z 17005KT 10SM CLR 02/01 A3039 RMK AO2 SLP310 T00170006 53004
cycle: 3

Station Type Date Time Source
KLMT TAF 2021/01/15 18:51 UTC NOAA

TAF KLMT 151749Z 1518/1618 VRB03KT P6SM SCT005 SCT025 SCT070
FM152100 24005KT P6SM BKN200
FM160900 00000KT 1/4SM FZFG VV002

Example: see airport list